Time;durP1;ratioP1;P1;durP2;ratioP2;P2;SDS_P1;SDS_P2;PMS_P1;PMS_P2;Temp;Humidity;BMP_temperature;BMP_pressure;BME280_temperature;BME280_humidity;BME280_pressure;Samples;Min_cycle;Max_cycle;Signal;HPM_P1;HPM_P2
2022/03/25 00:00:36;;;;;;;221.02;98.53;;;2.70;99.90;;;;;;5058005;28;20032;-52
2022/03/25 00:03:05;;;;;;;258.83;108.80;;;2.70;99.90;;;;;;5057675;28;20017;-52
2022/03/25 00:05:31;;;;;;;276.40;117.43;;;2.60;99.90;;;;;;5057592;28;20074;-52
2022/03/25 00:07:57;;;;;;;294.92;126.22;;;2.70;99.90;;;;;;5057857;28;20098;-52
2022/03/25 00:10:23;;;;;;;300.60;123.60;;;2.70;99.90;;;;;;5057638;28;20116;-52
2022/03/25 00:12:49;;;;;;;275.55;117.43;;;2.80;99.90;;;;;;5057463;28;20474;-52
2022/03/25 00:15:16;;;;;;;288.23;122.50;;;2.70;99.90;;;;;;5057499;28;20040;-52
2022/03/25 00:17:42;;;;;;;282.13;116.40;;;2.80;99.90;;;;;;5057407;28;20036;-52
2022/03/25 00:20:08;;;;;;;470.05;181.85;;;2.80;99.90;;;;;;5057664;28;20074;-52
2022/03/25 00:22:34;;;;;;;530.10;206.68;;;2.90;99.90;;;;;;5057361;28;20099;-52
2022/03/25 00:25:01;;;;;;;541.45;212.45;;;2.80;99.90;;;;;;5057391;28;20029;-52
2022/03/25 00:27:27;;;;;;;562.38;216.18;;;2.70;99.90;;;;;;5057419;28;20025;-52
2022/03/25 00:29:53;;;;;;;539.17;205.07;;;2.60;99.90;;;;;;5057703;28;20162;-52
2022/03/25 00:32:20;;;;;;;494.25;188.75;;;2.60;99.90;;;;;;5057243;28;20104;-52
2022/03/25 00:34:45;;;;;;;461.65;173.32;;;2.70;99.90;;;;;;5057004;28;20025;-52
2022/03/25 00:37:11;;;;;;;332.85;131.32;;;2.70;99.90;;;;;;5055760;28;20032;-52
2022/03/25 00:39:37;;;;;;;263.55;108.30;;;2.70;99.90;;;;;;5055763;28;20041;-52
2022/03/25 00:42:06;;;;;;;315.42;124.68;;;2.70;99.90;;;;;;5057189;28;20025;-52
2022/03/25 00:44:31;;;;;;;378.90;143.32;;;2.60;99.90;;;;;;5056987;28;20391;-52
2022/03/25 00:46:58;;;;;;;375.27;144.90;;;2.50;99.90;;;;;;5055754;28;20032;-52
2022/03/25 00:49:24;;;;;;;363.15;139.40;;;2.40;99.90;;;;;;5055683;28;20029;-52
2022/03/25 00:51:51;;;;;;;314.83;128.23;;;2.30;99.90;;;;;;5056754;28;20025;-52
2022/03/25 00:54:17;;;;;;;280.15;117.10;;;2.30;99.90;;;;;;5056744;28;20024;-52
2022/03/25 00:56:46;;;;;;;278.45;117.05;;;2.10;99.90;;;;;;5055126;28;20237;-52
2022/03/25 00:59:13;;;;;;;381.17;139.52;;;2.10;99.90;;;;;;5054654;28;20342;-52
2022/03/25 01:01:41;;;;;;;355.90;130.15;;;2.20;99.90;;;;;;5055272;28;20063;-52
2022/03/25 01:04:08;;;;;;;246.00;105.35;;;2.10;99.90;;;;;;5055153;28;20040;-52
2022/03/25 01:06:35;;;;;;;297.33;124.60;;;2.10;99.90;;;;;;5055271;28;20056;-52
2022/03/25 01:09:02;;;;;;;264.60;115.55;;;2.00;99.90;;;;;;5055220;28;20067;-52
2022/03/25 01:11:28;;;;;;;243.00;109.32;;;2.00;99.90;;;;;;5056520;28;20074;-52
2022/03/25 01:13:54;;;;;;;251.75;109.28;;;2.00;99.90;;;;;;5055015;28;20067;-52
2022/03/25 01:16:22;;;;;;;230.68;100.97;;;1.90;99.90;;;;;;5056641;28;20539;-52
2022/03/25 01:18:48;;;;;;;234.18;100.15;;;1.90;99.90;;;;;;5056326;28;20483;-52
2022/03/25 01:21:17;;;;;;;215.60;100.60;;;1.80;99.90;;;;;;5055047;28;20457;-52
2022/03/25 01:23:45;;;;;;;226.80;97.50;;;1.70;99.90;;;;;;5056122;28;20021;-52
2022/03/25 01:26:12;;;;;;;268.75;106.93;;;1.70;99.90;;;;;;5056482;28;20033;-52
2022/03/25 01:28:41;;;;;;;330.67;122.35;;;1.80;99.90;;;;;;5054958;28;20120;-52
2022/03/25 01:31:09;;;;;;;302.85;117.03;;;1.70;99.90;;;;;;5054802;28;20041;-52
2022/03/25 01:33:37;;;;;;;339.77;124.88;;;1.70;99.90;;;;;;5056058;28;20025;-52
2022/03/25 01:36:04;;;;;;;532.20;168.82;;;1.70;99.90;;;;;;5056202;28;20048;-52
2022/03/25 01:38:30;;;;;;;311.67;115.45;;;1.60;99.90;;;;;;5055610;28;20750;-52
2022/03/25 01:40:59;;;;;;;272.65;110.60;;;1.50;99.90;;;;;;5054746;28;20025;-52
2022/03/25 01:43:26;;;;;;;303.42;113.53;;;1.50;99.90;;;;;;5054827;28;20029;-52
2022/03/25 01:45:54;;;;;;;441.75;147.10;;;1.50;99.90;;;;;;5056043;28;20041;-52
2022/03/25 01:48:21;;;;;;;380.63;132.38;;;1.40;99.90;;;;;;5055808;28;20032;-52
2022/03/25 01:50:48;;;;;;;264.52;108.72;;;1.40;99.90;;;;;;5054495;28;20029;-52
2022/03/25 01:53:21;;;;;;;274.85;112.53;;;1.40;99.90;;;;;;5055710;28;20033;-52
2022/03/25 01:55:58;;;;;;;346.92;122.20;;;1.40;99.90;;;;;;5055649;28;20143;-51
2022/03/25 01:58:30;;;;;;;442.73;143.32;;;1.50;99.90;;;;;;5054367;28;20029;-52
2022/03/25 02:00:56;;;;;;;353.63;126.28;;;1.50;99.90;;;;;;5054082;28;20528;-52
2022/03/25 02:03:23;;;;;;;306.65;116.38;;;1.50;99.90;;;;;;5055328;28;20529;-52
2022/03/25 02:05:49;;;;;;;311.75;120.35;;;1.40;99.90;;;;;;5055377;28;20425;-52
2022/03/25 02:08:16;;;;;;;335.10;124.20;;;1.40;99.90;;;;;;5054186;28;20502;-52
2022/03/25 02:10:44;;;;;;;303.08;116.20;;;1.30;99.90;;;;;;5055230;28;20029;-52
2022/03/25 02:13:11;;;;;;;306.60;123.60;;;1.40;99.90;;;;;;5054029;28;20530;-52
2022/03/25 02:15:43;;;;;;;264.60;107.57;;;1.40;99.90;;;;;;5053836;28;20032;-51
2022/03/25 02:18:15;;;;;;;262.52;108.35;;;1.40;99.90;;;;;;5054017;28;20036;-52
2022/03/25 02:20:42;;;;;;;254.05;106.65;;;1.40;99.90;;;;;;5055423;28;20079;-52
2022/03/25 02:23:11;;;;;;;227.95;98.88;;;1.30;99.90;;;;;;5053807;28;20033;-52
2022/03/25 02:25:38;;;;;;;241.55;100.47;;;1.30;99.90;;;;;;5054002;28;20382;-52
2022/03/25 02:28:05;;;;;;;232.95;99.30;;;1.40;99.90;;;;;;5053521;28;20036;-52
2022/03/25 02:30:36;;;;;;;309.10;117.07;;;1.50;99.90;;;;;;5053837;28;20033;-52
2022/03/25 02:33:04;;;;;;;313.88;115.82;;;1.50;99.90;;;;;;5053615;28;20036;-52
2022/03/25 02:35:45;;;;;;;190.70;77.13;;;1.50;99.90;;;;;;5054850;28;20056;-52
2022/03/25 02:38:23;;;;;;;155.80;61.67;;;1.60;99.90;;;;;;5053445;28;20073;-52
2022/03/25 02:40:50;;;;;;;126.75;54.45;;;1.40;99.90;;;;;;5053644;28;20025;-52
2022/03/25 02:43:17;;;;;;;158.48;64.65;;;1.40;99.90;;;;;;5053553;28;20112;-52
2022/03/25 02:45:48;;;;;;;165.77;71.38;;;1.30;99.90;;;;;;5053371;28;20029;-52
2022/03/25 02:48:14;;;;;;;207.30;83.90;;;1.20;99.90;;;;;;5053494;28;20048;-52
2022/03/25 02:50:40;;;;;;;191.57;80.28;;;1.20;99.90;;;;;;5053406;28;20115;-52
2022/03/25 02:53:07;;;;;;;213.30;93.10;;;1.10;99.90;;;;;;5054486;28;20036;-52
2022/03/25 02:55:33;;;;;;;205.90;90.50;;;1.00;99.90;;;;;;5054501;28;20106;-52
2022/03/25 02:57:59;;;;;;;234.65;96.78;;;0.90;99.90;;;;;;5054386;28;20029;-52
2022/03/25 03:00:26;;;;;;;315.25;118.30;;;1.00;99.90;;;;;;5054687;28;20025;-52
2022/03/25 03:02:53;;;;;;;354.67;134.35;;;1.00;99.90;;;;;;5054397;28;20013;-52
2022/03/25 03:05:20;;;;;;;310.00;123.05;;;1.00;99.90;;;;;;5054460;28;20112;-52
2022/03/25 03:07:47;;;;;;;228.98;98.20;;;1.00;99.90;;;;;;5054402;28;20159;-52
2022/03/25 03:10:14;;;;;;;231.85;96.63;;;1.00;99.90;;;;;;5054361;28;20573;-52
2022/03/25 03:12:41;;;;;;;242.38;98.93;;;1.00;99.90;;;;;;5054474;28;20387;-52
2022/03/25 03:15:08;;;;;;;211.82;93.05;;;0.90;99.90;;;;;;5054286;28;20078;-52
2022/03/25 03:17:34;;;;;;;351.83;128.43;;;1.00;99.90;;;;;;5054179;28;20339;-52
2022/03/25 03:20:02;;;;;;;375.90;140.20;;;1.00;99.90;;;;;;5054159;28;20104;-52
2022/03/25 03:22:28;;;;;;;329.27;127.10;;;1.00;99.90;;;;;;5053611;28;20017;-52
2022/03/25 03:24:54;;;;;;;296.60;117.30;;;1.00;99.90;;;;;;5054431;28;20033;-52
2022/03/25 03:27:20;;;;;;;258.50;100.53;;;0.90;99.90;;;;;;5054387;28;20056;-52
2022/03/25 03:29:46;;;;;;;274.70;106.30;;;0.80;99.90;;;;;;5054193;28;20037;-52
2022/03/25 03:32:12;;;;;;;250.95;102.60;;;0.70;99.90;;;;;;5054106;28;20060;-52
2022/03/25 03:34:39;;;;;;;192.63;85.78;;;0.70;99.90;;;;;;5054159;28;20064;-52
2022/03/25 03:37:05;;;;;;;187.15;82.40;;;0.80;99.90;;;;;;5054033;28;20367;-51
2022/03/25 03:39:31;;;;;;;177.23;83.00;;;0.70;99.90;;;;;;5053986;28;20486;-52
2022/03/25 03:41:57;;;;;;;195.85;86.22;;;0.60;99.90;;;;;;5054119;28;20049;-52
2022/03/25 03:44:23;;;;;;;189.15;84.18;;;0.60;99.90;;;;;;5054155;28;20052;-52
2022/03/25 03:46:49;;;;;;;195.70;83.72;;;0.70;99.90;;;;;;5053943;28;20009;-52
2022/03/25 03:49:15;;;;;;;178.65;81.60;;;0.70;99.90;;;;;;5054009;28;20044;-52
2022/03/25 03:51:41;;;;;;;192.38;83.78;;;0.70;99.90;;;;;;5053927;28;20036;-51
2022/03/25 03:54:07;;;;;;;179.85;83.93;;;0.70;99.90;;;;;;5053861;28;20025;-52
2022/03/25 03:56:33;;;;;;;180.95;82.25;;;0.70;99.90;;;;;;5054035;28;20080;-52
2022/03/25 03:58:59;;;;;;;185.23;83.13;;;0.70;99.90;;;;;;5053921;28;20029;-52
2022/03/25 04:01:25;;;;;;;181.57;85.28;;;0.60;99.90;;;;;;5054015;28;20049;-51
2022/03/25 04:03:50;;;;;;;173.07;76.75;;;0.50;99.90;;;;;;5053799;28;20362;-51
2022/03/25 04:06:16;;;;;;;176.25;76.55;;;0.50;99.90;;;;;;5053918;28;20053;-52
2022/03/25 04:08:42;;;;;;;167.55;78.47;;;0.50;99.90;;;;;;5053720;28;20029;-52
2022/03/25 04:11:08;;;;;;;171.13;75.63;;;0.40;99.90;;;;;;5053833;28;20518;-51
2022/03/25 04:13:34;;;;;;;170.68;75.72;;;0.40;99.90;;;;;;5053971;28;20041;-52
2022/03/25 04:16:00;;;;;;;171.32;80.00;;;0.30;99.90;;;;;;5053617;28;20032;-52
2022/03/25 04:18:27;;;;;;;213.85;96.30;;;0.30;99.90;;;;;;5053792;28;20470;-52
2022/03/25 04:20:53;;;;;;;202.30;87.75;;;0.30;99.90;;;;;;5053574;28;20040;-52
2022/03/25 04:23:18;;;;;;;196.30;88.68;;;0.40;99.90;;;;;;5053692;28;20025;-52
2022/03/25 04:25:44;;;;;;;188.20;86.38;;;0.40;99.90;;;;;;5053754;28;20063;-52
2022/03/25 04:28:10;;;;;;;185.55;82.45;;;0.40;99.90;;;;;;5053617;28;20058;-52
2022/03/25 04:30:37;;;;;;;194.50;84.82;;;0.30;99.90;;;;;;5053762;28;20423;-52
2022/03/25 04:33:04;;;;;;;194.00;85.82;;;0.30;99.90;;;;;;5054463;28;20040;-52
2022/03/25 04:35:30;;;;;;;176.05;79.97;;;0.30;99.90;;;;;;5057069;28;20497;-52
2022/03/25 04:37:57;;;;;;;157.07;73.40;;;0.30;99.90;;;;;;5057079;28;20033;-52
2022/03/25 04:40:25;;;;;;;156.27;70.55;;;0.10;99.90;;;;;;5057209;28;20470;-51
2022/03/25 04:42:53;;;;;;;171.38;77.65;;;0.10;99.90;;;;;;5057022;28;20037;-52
2022/03/25 04:45:20;;;;;;;146.10;68.22;;;0.00;99.90;;;;;;5056998;28;20028;-52
2022/03/25 04:47:46;;;;;;;154.40;67.93;;;0.10;99.90;;;;;;5056948;28;20041;-51
2022/03/25 04:50:13;;;;;;;146.05;68.45;;;0.10;99.90;;;;;;5056910;28;20043;-52
2022/03/25 04:52:39;;;;;;;152.20;68.78;;;0.10;99.90;;;;;;5057051;28;20033;-52
2022/03/25 04:55:06;;;;;;;146.98;69.85;;;0.10;99.90;;;;;;5056753;28;20073;-52
2022/03/25 04:57:32;;;;;;;151.73;72.00;;;0.10;99.90;;;;;;5056506;28;20029;-52
2022/03/25 04:59:58;;;;;;;151.52;71.05;;;0.30;99.90;;;;;;5056754;28;20039;-52
2022/03/25 05:02:25;;;;;;;151.20;67.20;;;0.40;99.90;;;;;;5056532;28;20028;-51
2022/03/25 05:04:55;;;;;;;149.25;68.70;;;0.50;99.90;;;;;;5056605;28;20044;-52
2022/03/25 05:07:21;;;;;;;150.38;67.30;;;0.60;99.90;;;;;;5056594;28;20490;-52
2022/03/25 05:09:47;;;;;;;144.57;66.63;;;0.80;99.90;;;;;;5056464;28;20025;-52
2022/03/25 05:12:14;;;;;;;156.50;66.38;;;0.90;99.90;;;;;;5056521;28;20028;-52
2022/03/25 05:14:40;;;;;;;150.98;66.18;;;1.10;99.90;;;;;;5056364;28;20024;-51
2022/03/25 05:17:06;;;;;;;165.43;70.20;;;1.20;99.90;;;;;;5056330;28;20025;-52
2022/03/25 05:19:33;;;;;;;169.55;71.60;;;1.30;99.90;;;;;;5056299;28;20112;-52
2022/03/25 05:21:59;;;;;;;172.18;73.43;;;1.50;99.90;;;;;;5056345;28;20021;-52
2022/03/25 05:24:26;;;;;;;191.43;70.90;;;1.50;99.90;;;;;;5056411;28;20056;-52
2022/03/25 05:26:53;;;;;;;166.82;72.03;;;1.50;99.90;;;;;;5056069;28;20028;-52
2022/03/25 05:29:20;;;;;;;170.13;70.25;;;1.70;99.90;;;;;;5056177;28;20037;-52
2022/03/25 05:31:46;;;;;;;183.75;75.03;;;1.80;99.90;;;;;;5056036;28;20036;-52
2022/03/25 05:34:12;;;;;;;198.00;75.90;;;1.90;99.90;;;;;;5055968;28;20544;-52
2022/03/25 05:36:38;;;;;;;173.30;72.75;;;2.10;99.90;;;;;;5056184;28;20075;-52
2022/03/25 05:39:05;;;;;;;158.32;71.25;;;2.40;99.90;;;;;;5055744;28;20025;-52
2022/03/25 05:41:33;;;;;;;179.23;72.65;;;2.50;99.90;;;;;;5055873;28;20374;-52
2022/03/25 05:44:00;;;;;;;176.07;75.03;;;2.70;99.90;;;;;;5055232;28;20021;-52
2022/03/25 05:46:26;;;;;;;247.35;89.28;;;2.70;99.90;;;;;;5055715;28;20414;-52
2022/03/25 05:48:52;;;;;;;199.93;76.93;;;3.00;99.90;;;;;;5055970;28;20055;-52
2022/03/25 05:51:18;;;;;;;176.20;73.47;;;3.20;99.90;;;;;;5055493;28;20556;-52
2022/03/25 05:53:44;;;;;;;170.13;74.28;;;3.40;99.90;;;;;;5055593;28;20036;-52
2022/03/25 05:56:11;;;;;;;170.95;73.97;;;3.60;99.90;;;;;;5055356;28;20133;-52
2022/03/25 05:58:38;;;;;;;180.50;78.75;;;3.90;99.90;;;;;;5055511;28;20482;-52
2022/03/25 06:01:11;;;;;;;203.50;86.53;;;4.20;99.90;;;;;;5055806;28;20029;-52
2022/03/25 06:03:37;;;;;;;206.15;90.20;;;4.40;99.90;;;;;;5055518;28;20021;-52
2022/03/25 06:06:06;;;;;;;207.68;93.55;;;4.60;99.90;;;;;;5055320;28;20048;-52
2022/03/25 06:08:33;;;;;;;199.80;89.68;;;4.70;99.90;;;;;;5055228;28;20025;-52
2022/03/25 06:11:00;;;;;;;209.93;90.45;;;4.90;99.90;;;;;;5055481;28;20024;-52
2022/03/25 06:13:27;;;;;;;202.57;89.63;;;5.10;99.90;;;;;;5055179;28;20490;-52
2022/03/25 06:15:53;;;;;;;210.80;91.65;;;5.40;99.90;;;;;;5050098;28;20017;-52
2022/03/25 06:18:19;;;;;;;198.05;89.22;;;5.60;99.30;;;;;;5049587;28;20157;-52
2022/03/25 06:20:45;;;;;;;191.75;87.95;;;5.70;98.20;;;;;;5049998;28;20036;-52
2022/03/25 06:23:11;;;;;;;218.57;103.03;;;5.80;98.30;;;;;;5052719;28;20033;-52
2022/03/25 06:25:37;;;;;;;231.20;107.13;;;6.20;98.40;;;;;;5047542;28;20017;-52
2022/03/25 06:28:07;;;;;;;224.30;106.13;;;6.30;98.40;;;;;;5045052;28;20041;-52
2022/03/25 06:30:36;;;;;;;227.45;103.65;;;6.70;97.60;;;;;;5050624;28;20075;-52
2022/03/25 06:33:04;;;;;;;204.95;99.10;;;7.10;97.80;;;;;;5053041;28;20017;-52
2022/03/25 06:35:30;;;;;;;217.20;97.63;;;7.30;95.00;;;;;;5055349;28;20048;-53
2022/03/25 06:37:56;;;;;;;217.45;97.63;;;7.60;94.80;;;;;;5050803;28;20029;-52
2022/03/25 06:40:23;;;;;;;201.05;93.45;;;7.90;94.60;;;;;;5055413;28;20040;-53
2022/03/25 06:42:53;;;;;;;197.70;91.88;;;8.20;93.30;;;;;;5048614;28;20025;-52
2022/03/25 06:45:20;;;;;;;195.65;92.40;;;8.30;92.60;;;;;;5040828;28;20032;-52
2022/03/25 06:47:46;;;;;;;226.05;96.30;;;8.40;91.30;;;;;;5042820;28;20071;-52
2022/03/25 06:50:15;;;;;;;200.82;94.05;;;8.60;92.50;;;;;;5047846;28;20060;-52
2022/03/25 06:52:42;;;;;;;195.82;95.57;;;9.00;91.90;;;;;;5045028;28;20032;-53
2022/03/25 06:55:10;;;;;;;205.90;100.40;;;9.30;89.30;;;;;;5041099;28;20055;-52
2022/03/25 06:57:36;;;;;;;194.13;94.00;;;9.60;89.00;;;;;;5040406;28;20040;-52
2022/03/25 07:00:04;;;;;;;214.68;95.80;;;9.60;87.60;;;;;;5044118;28;20120;-53
2022/03/25 07:02:31;;;;;;;182.13;93.53;;;9.60;88.10;;;;;;5049050;28;20025;-53
2022/03/25 07:04:57;;;;;;;191.23;92.00;;;10.00;85.10;;;;;;5046958;28;20037;-53
2022/03/25 07:07:26;;;;;;;183.20;87.03;;;10.40;77.40;;;;;;5050801;28;20086;-53
2022/03/25 07:09:56;;;;;;;185.25;91.07;;;10.70;68.60;;;;;;5046251;28;20031;-53
2022/03/25 07:12:23;;;;;;;178.95;86.53;;;11.10;66.90;;;;;;5043475;28;20017;-53
2022/03/25 07:14:48;;;;;;;180.27;90.25;;;11.10;65.90;;;;;;5041748;28;20045;-52
2022/03/25 07:17:14;;;;;;;185.23;89.30;;;11.30;59.40;;;;;;5042213;28;20721;-52
2022/03/25 07:19:40;;;;;;;191.50;90.18;;;11.40;60.40;;;;;;5043326;28;20020;-52
2022/03/25 07:22:07;;;;;;;185.52;91.72;;;11.70;58.80;;;;;;5041114;28;20474;-52
2022/03/25 07:24:33;;;;;;;179.43;87.45;;;12.00;57.60;;;;;;5052906;28;20033;-52
2022/03/25 07:26:59;;;;;;;183.05;83.68;;;12.40;58.90;;;;;;5052094;28;20021;-52
2022/03/25 07:29:25;;;;;;;152.20;75.15;;;12.70;53.90;;;;;;5049719;28;20556;-52
2022/03/25 07:31:53;;;;;;;155.13;74.07;;;12.70;52.00;;;;;;5035630;28;20025;-53
2022/03/25 07:34:19;;;;;;;148.57;74.40;;;13.20;51.70;;;;;;5041427;28;20032;-53
2022/03/25 07:36:45;;;;;;;138.07;66.80;;;13.40;47.40;;;;;;5043021;28;20467;-53
2022/03/25 07:39:11;;;;;;;153.48;71.47;;;13.60;45.30;;;;;;5040829;28;20131;-53
2022/03/25 07:41:37;;;;;;;147.20;71.82;;;13.70;45.80;;;;;;5051066;28;20073;-53
2022/03/25 07:44:03;;;;;;;146.25;77.70;;;14.50;46.10;;;;;;5050323;28;20052;-53
2022/03/25 07:46:29;;;;;;;138.05;69.63;;;14.60;42.30;;;;;;5050963;28;20140;-53
2022/03/25 07:48:58;;;;;;;131.52;67.22;;;14.70;40.80;;;;;;5050422;28;20033;-54
2022/03/25 07:51:24;;;;;;;120.85;60.03;;;14.40;40.50;;;;;;5046973;28;20028;-53
2022/03/25 07:53:50;;;;;;;108.88;54.45;;;15.30;41.20;;;;;;5045928;28;20040;-53
2022/03/25 07:56:16;;;;;;;111.60;54.47;;;15.80;37.90;;;;;;5044471;28;20060;-54
2022/03/25 07:58:43;;;;;;;84.75;42.38;;;16.20;36.10;;;;;;5042494;28;20037;-53
2022/03/25 08:01:09;;;;;;;86.00;44.55;;;16.50;35.80;;;;;;5034201;28;20767;-54
2022/03/25 08:03:35;;;;;;;98.13;47.05;;;16.90;33.50;;;;;;5039851;28;20029;-54
2022/03/25 08:06:03;;;;;;;106.65;46.17;;;17.10;32.90;;;;;;5042421;28;20538;-54
2022/03/25 08:08:29;;;;;;;101.43;46.50;;;17.20;32.20;;;;;;5051009;28;20029;-53
2022/03/25 08:10:59;;;;;;;102.13;46.25;;;16.30;32.80;;;;;;5048910;28;20036;-54
2022/03/25 08:13:25;;;;;;;127.20;59.22;;;16.80;33.00;;;;;;5054347;28;20454;-54
2022/03/25 08:15:51;;;;;;;81.15;42.40;;;17.40;32.80;;;;;;5048727;28;20056;-54
2022/03/25 08:18:17;;;;;;;75.68;39.60;;;17.70;31.30;;;;;;5050809;28;21430;-54
2022/03/25 08:20:45;;;;;;;85.07;43.72;;;17.90;30.90;;;;;;5046121;28;20021;-54
2022/03/25 08:27:48;;;;;;;88.15;41.65;;;18.10;30.30;;;;;;5053460;28;21842;-54
2022/03/25 08:28:51;;;;;;;96.53;42.10;;;18.60;29.00;;;;;;5047269;28;20056;-54
2022/03/25 08:31:18;;;;;;;87.28;44.00;;;18.70;29.30;;;;;;5038780;28;20087;-55
2022/03/25 08:33:44;;;;;;;92.30;46.67;;;18.80;28.90;;;;;;5045162;28;20549;-54
2022/03/25 08:36:10;;;;;;;90.38;47.35;;;19.00;28.80;;;;;;5050671;28;20036;-54
2022/03/25 08:38:39;;;;;;;87.00;45.20;;;19.20;28.60;;;;;;5055595;28;20032;-54
2022/03/25 08:41:05;;;;;;;87.28;41.85;;;19.20;29.10;;;;;;5051767;28;20018;-55
2022/03/25 08:43:32;;;;;;;82.38;40.03;;;19.70;28.50;;;;;;5046938;28;20071;-54
2022/03/25 08:45:58;;;;;;;76.80;34.05;;;19.90;28.30;;;;;;5047499;28;20037;-55
2022/03/25 08:48:24;;;;;;;77.40;36.33;;;19.80;27.00;;;;;;5054348;28;20021;-55
2022/03/25 08:50:50;;;;;;;70.35;36.75;;;19.60;27.10;;;;;;5056088;28;20120;-55
2022/03/25 08:53:17;;;;;;;65.80;34.78;;;19.90;26.70;;;;;;5045520;28;20029;-55
2022/03/25 08:55:43;;;;;;;68.28;37.17;;;20.60;26.80;;;;;;5044486;28;20118;-53
2022/03/25 08:58:09;;;;;;;70.32;32.80;;;21.10;26.60;;;;;;5049433;28;20132;-53
2022/03/25 09:00:36;;;;;;;57.08;31.70;;;21.20;25.30;;;;;;5049707;28;20048;-53
2022/03/25 09:03:02;;;;;;;51.53;29.83;;;21.10;25.20;;;;;;5055865;28;20128;-54
2022/03/25 09:05:28;;;;;;;44.83;24.63;;;21.50;25.60;;;;;;5056405;28;20075;-54
2022/03/25 09:07:54;;;;;;;54.15;28.58;;;21.10;24.50;;;;;;5056750;28;20048;-54
2022/03/25 09:10:20;;;;;;;50.58;26.20;;;21.10;24.20;;;;;;5052695;28;20025;-53
2022/03/25 09:12:46;;;;;;;47.92;27.08;;;21.40;24.80;;;;;;5055847;28;20506;-54
2022/03/25 09:15:13;;;;;;;85.03;29.17;;;21.10;24.30;;;;;;5053281;28;20033;-54
2022/03/25 09:17:46;;;;;;;37.95;23.50;;;21.50;24.00;;;;;;5051397;28;20119;-54
2022/03/25 09:20:13;;;;;;;37.70;22.90;;;21.90;23.50;;;;;;5045920;28;20167;-54
2022/03/25 09:22:40;;;;;;;41.83;23.02;;;22.30;23.90;;;;;;5048044;28;20036;-54
2022/03/25 09:25:09;;;;;;;44.47;24.27;;;22.70;23.80;;;;;;5052576;28;20033;-54
2022/03/25 09:27:36;;;;;;;36.28;21.35;;;22.20;23.00;;;;;;5048047;28;20029;-54
2022/03/25 09:30:06;;;;;;;33.70;18.75;;;22.40;23.40;;;;;;5055907;28;20033;-54
2022/03/25 09:32:32;;;;;;;34.00;19.88;;;22.70;22.80;;;;;;5056425;28;20040;-54
2022/03/25 09:35:10;;;;;;;30.50;19.35;;;22.50;22.20;;;;;;5040088;28;20037;-54
2022/03/25 09:37:46;;;;;;;29.35;17.52;;;22.30;21.90;;;;;;5046655;28;20524;-54
2022/03/25 09:40:18;;;;;;;31.15;17.00;;;22.90;22.50;;;;;;5054607;28;20433;-54
2022/03/25 09:42:45;;;;;;;69.43;19.70;;;23.40;22.60;;;;;;5054904;28;20032;-54
2022/03/25 09:45:13;;;;;;;59.47;20.55;;;24.30;21.50;;;;;;5054216;28;20031;-54
2022/03/25 09:47:40;;;;;;;31.92;17.67;;;23.40;21.30;;;;;;5053863;28;20039;-54
2022/03/25 09:50:09;;;;;;;29.08;18.05;;;23.70;21.90;;;;;;5051056;28;20029;-54
2022/03/25 09:52:36;;;;;;;37.58;18.60;;;23.80;21.90;;;;;;5054530;28;20167;-54
2022/03/25 09:55:03;;;;;;;31.98;16.85;;;24.00;22.40;;;;;;5053295;28;20049;-55
2022/03/25 09:57:30;;;;;;;34.05;17.95;;;23.60;21.20;;;;;;5052617;28;20040;-54
2022/03/25 09:59:57;;;;;;;33.15;18.92;;;24.30;21.30;;;;;;5047385;28;20035;-54
2022/03/25 10:02:24;;;;;;;41.10;20.20;;;24.80;20.00;;;;;;5041382;28;20037;-54
2022/03/25 10:04:51;;;;;;;33.80;19.58;;;24.90;20.00;;;;;;5048322;28;20507;-54
2022/03/25 10:07:22;;;;;;;43.38;19.77;;;24.90;20.10;;;;;;5046722;28;20390;-54
2022/03/25 10:09:49;;;;;;;;;;;24.70;20.50;;;;;;5053664;28;20029;-54
2022/03/25 10:12:18;;;;;;;34.80;19.30;;;24.90;20.60;;;;;;5054744;28;19974;-54
2022/03/25 10:14:49;;;;;;;33.78;18.50;;;24.70;20.50;;;;;;5055540;28;20025;-54
2022/03/25 10:17:15;;;;;;;;;;;25.00;20.70;;;;;;5054602;28;20044;-54
2022/03/25 10:19:52;;;;;;;28.33;17.67;;;25.50;20.10;;;;;;5053961;28;19911;-54
2022/03/25 10:22:19;;;;;;;28.77;17.50;;;25.20;18.60;;;;;;5053559;28;20029;-54
2022/03/25 10:24:52;;;;;;;52.28;20.45;;;24.70;18.70;;;;;;5052658;28;20118;-54
2022/03/25 10:27:29;;;;;;;34.55;19.33;;;25.20;19.20;;;;;;5054037;28;20500;-54
2022/03/25 10:29:56;;;;;;;30.48;17.92;;;25.30;18.70;;;;;;5054484;28;20036;-54
2022/03/25 10:32:25;;;;;;;33.85;17.55;;;25.20;18.50;;;;;;5046455;28;20040;-54
2022/03/25 10:35:09;;;;;;;34.70;17.83;;;24.40;18.50;;;;;;5044947;28;20039;-54
2022/03/25 10:37:54;;;;;;;31.25;17.75;;;24.30;19.30;;;;;;5054802;28;20083;-54
2022/03/25 10:40:20;;;;;;;30.42;17.95;;;24.60;19.40;;;;;;5044739;28;20103;-54
2022/03/25 10:43:07;;;;;;;49.58;19.92;;;24.20;19.50;;;;;;5051242;28;20108;-54
2022/03/25 10:45:39;;;;;;;55.20;21.92;;;24.20;19.50;;;;;;5053946;28;20032;-54
2022/03/25 10:48:12;;;;;;;36.65;19.30;;;23.80;19.90;;;;;;5051423;28;20021;-54
2022/03/25 10:50:53;;;;;;;43.15;18.08;;;23.30;19.70;;;;;;5048719;28;20086;-54
2022/03/25 10:53:21;;;;;;;33.58;17.85;;;23.50;20.00;;;;;;5043905;28;20731;-54
2022/03/25 10:55:58;;;;;;;36.85;18.90;;;23.30;20.30;;;;;;5046746;28;20048;-54
2022/03/25 10:58:24;;;;;;;36.67;18.33;;;23.60;20.20;;;;;;5045734;28;20127;-54
2022/03/25 11:00:52;;;;;;;37.78;18.08;;;24.10;20.40;;;;;;5047059;28;20163;-54
2022/03/25 11:03:18;;;;;;;35.53;18.75;;;24.20;20.20;;;;;;5052994;28;20033;-54
2022/03/25 11:05:44;;;;;;;28.30;17.35;;;24.40;19.30;;;;;;5049842;28;20501;-54
2022/03/25 11:08:11;;;;;;;36.13;18.58;;;24.50;18.90;;;;;;5048626;28;20090;-54
2022/03/25 11:10:38;;;;;;;27.52;16.58;;;23.70;18.80;;;;;;5052306;28;20033;-54
2022/03/25 11:13:05;;;;;;;35.03;18.00;;;23.10;18.90;;;;;;5054328;28;20068;-54
2022/03/25 11:15:32;;;;;;;36.42;18.77;;;22.80;19.40;;;;;;5041599;28;20025;-54
2022/03/25 11:17:58;;;;;;;30.48;16.85;;;23.10;19.80;;;;;;5039312;28;20034;-54
2022/03/25 11:20:28;;;;;;;34.65;17.38;;;22.70;19.80;;;;;;5047579;28;20374;-54
2022/03/25 11:23:01;;;;;;;32.35;17.55;;;23.50;20.10;;;;;;5048207;28;20029;-54
2022/03/25 11:25:30;;;;;;;29.88;17.17;;;24.30;20.30;;;;;;5050028;28;20025;-54
2022/03/25 11:28:04;;;;;;;27.30;16.42;;;24.80;19.80;;;;;;5041467;28;20104;-54
2022/03/25 11:30:35;;;;;;;31.45;17.30;;;24.40;18.60;;;;;;5046361;28;20029;-54
2022/03/25 11:33:04;;;;;;;43.17;18.48;;;24.10;18.70;;;;;;5054062;28;20063;-54
2022/03/25 11:35:32;;;;;;;40.42;17.63;;;23.80;18.80;;;;;;5054576;28;20028;-54
2022/03/25 11:38:27;;;;;;;58.58;20.25;;;23.80;19.10;;;;;;5053556;28;20056;-54
2022/03/25 11:40:53;;;;;;;36.58;16.73;;;24.30;19.40;;;;;;5045338;28;20379;-54
2022/03/25 11:43:22;;;;;;;28.08;16.08;;;24.50;18.90;;;;;;5058040;28;20104;-54
2022/03/25 11:46:04;;;;;;;29.73;17.05;;;25.00;19.40;;;;;;5058122;28;20039;-54
2022/03/25 11:48:31;;;;;;;29.33;14.85;;;24.90;18.40;;;;;;5038518;28;20029;-54
2022/03/25 11:50:59;;;;;;;33.88;15.82;;;24.00;17.90;;;;;;5038535;28;20038;-54
2022/03/25 11:53:25;;;;;;;22.88;12.65;;;24.30;18.40;;;;;;5055128;28;20033;-54
2022/03/25 11:56:09;;;;;;;21.95;12.35;;;24.50;18.30;;;;;;5058059;28;20052;-54
2022/03/25 11:58:39;;;;;;;35.13;17.95;;;24.90;18.00;;;;;;5058283;28;20052;-54
2022/03/25 12:01:18;;;;;;;26.10;15.95;;;24.30;17.90;;;;;;5058136;28;20378;-54
2022/03/25 12:03:47;;;;;;;40.35;16.20;;;24.80;18.50;;;;;;5056697;28;20021;-54
2022/03/25 12:06:13;;;;;;;44.70;16.17;;;24.80;18.20;;;;;;5054203;28;20467;-54
2022/03/25 12:09:08;;;;;;;21.67;12.02;;;25.20;18.90;;;;;;5057775;28;20035;-54
2022/03/25 12:11:55;;;;;;;28.73;13.40;;;24.50;18.00;;;;;;5037253;28;20036;-54
2022/03/25 12:14:26;;;;;;;31.08;13.43;;;25.00;18.40;;;;;;5037220;28;20036;-54
2022/03/25 12:16:54;;;;;;;27.20;14.70;;;25.70;19.40;;;;;;5051613;28;20029;-54
2022/03/25 12:19:26;;;;;;;30.25;14.27;;;25.00;17.80;;;;;;5058095;28;20032;-54
2022/03/25 12:22:02;;;;;;;41.65;15.68;;;24.80;17.90;;;;;;5057594;28;20098;-54
2022/03/25 12:24:30;;;;;;;42.40;15.07;;;24.80;18.10;;;;;;5057933;28;20187;-54
2022/03/25 12:27:02;;;;;;;33.42;14.48;;;25.10;18.50;;;;;;5057536;28;20028;-54
2022/03/25 12:29:33;;;;;;;23.58;11.00;;;25.30;18.60;;;;;;5058045;28;20029;-54